createdAt,value
2019-03-28T00:00:40.749Z,98.78
2019-03-28T00:02:46.266Z,91.30
2019-03-28T00:04:51.913Z,96.25
2019-03-28T00:06:57.612Z,84.50
2019-03-28T00:09:03.242Z,88.78
2019-03-28T00:11:14.313Z,86.72
2019-03-28T00:13:30.106Z,81.87
2019-03-28T00:15:36.034Z,86.87
2019-03-28T00:17:42.198Z,87.92
2019-03-28T00:19:47.737Z,84.62
2019-03-28T00:21:53.262Z,81.32
2019-03-28T00:24:00.416Z,90.72
2019-03-28T00:26:06.016Z,86.20
2019-03-28T00:28:12.405Z,83.25
2019-03-28T00:30:19.311Z,84.17
2019-03-28T00:32:24.924Z,82.80
2019-03-28T00:34:30.446Z,82.57
2019-03-28T00:36:36.049Z,77.62
2019-03-28T00:38:41.564Z,76.55
2019-03-28T00:40:47.100Z,77.47
2019-03-28T00:42:52.620Z,79.07
2019-03-28T00:44:58.179Z,79.87
2019-03-28T00:47:03.776Z,84.00
2019-03-28T00:49:09.291Z,84.92
2019-03-28T00:51:14.850Z,92.35
2019-03-28T00:53:20.372Z,113.62
2019-03-28T00:55:25.904Z,114.25
2019-03-28T00:57:31.444Z,119.62
2019-03-28T00:59:36.988Z,129.97
2019-03-28T01:01:43.359Z,125.85
2019-03-28T01:03:48.884Z,97.60
2019-03-28T01:05:55.372Z,85.90
2019-03-28T01:08:00.900Z,83.42
2019-03-28T01:10:07.068Z,82.12
2019-03-28T01:12:12.588Z,83.33
2019-03-28T01:14:18.176Z,85.50
2019-03-28T01:16:23.785Z,70.67
2019-03-28T01:18:30.408Z,74.87
2019-03-28T01:20:35.931Z,88.65
2019-03-28T01:22:41.512Z,93.72
2019-03-28T01:24:47.055Z,85.42
2019-03-28T01:26:57.617Z,80.07
2019-03-28T01:29:00.824Z,79.60
2019-03-28T01:31:06.377Z,94.42
2019-03-28T01:33:11.905Z,101.90
2019-03-28T01:35:17.435Z,113.00
2019-03-28T01:37:22.974Z,98.97
2019-03-28T01:39:28.501Z,101.97
2019-03-28T01:41:34.028Z,93.35
2019-03-28T01:43:39.569Z,89.10
2019-03-28T01:45:45.165Z,80.47
2019-03-28T01:47:50.691Z,71.12
2019-03-28T01:49:56.259Z,67.32
2019-03-28T01:52:04.146Z,60.95
2019-03-28T01:54:08.938Z,65.52
2019-03-28T01:56:14.460Z,63.42
2019-03-28T01:58:19.989Z,58.92
2019-03-28T02:00:25.575Z,51.95
2019-03-28T02:02:31.111Z,49.20
2019-03-28T02:04:36.633Z,46.50
2019-03-28T02:06:42.215Z,46.05
2019-03-28T02:08:47.746Z,47.62
2019-03-28T02:10:53.281Z,49.70
2019-03-28T02:12:58.849Z,46.23
2019-03-28T02:15:08.886Z,47.55
2019-03-28T02:17:14.418Z,46.73
2019-03-28T02:19:20.253Z,47.83
2019-03-28T02:21:26.173Z,45.78
2019-03-28T02:23:31.699Z,47.45
2019-03-28T02:25:37.220Z,49.33
2019-03-28T02:27:42.781Z,48.60
2019-03-28T02:29:48.308Z,48.20
2019-03-28T02:31:54.849Z,48.58
2019-03-28T02:34:12.909Z,49.60
2019-03-28T02:36:18.505Z,50.20
2019-03-28T02:38:24.047Z,48.83
2019-03-28T02:40:29.723Z,53.58
2019-03-28T02:42:35.254Z,48.17
2019-03-28T02:44:40.795Z,50.67
2019-03-28T02:46:46.425Z,49.77
2019-03-28T02:48:51.990Z,48.92
2019-03-28T02:50:57.519Z,54.08
2019-03-28T02:53:03.059Z,55.23
2019-03-28T02:55:09.039Z,51.95
2019-03-28T02:57:14.568Z,50.08
2019-03-28T02:59:20.100Z,51.83
2019-03-28T03:01:29.926Z,51.63
2019-03-28T03:03:34.042Z,50.33
2019-03-28T03:05:39.670Z,52.50
2019-03-28T03:07:45.397Z,48.20
2019-03-28T03:09:51.583Z,49.48
2019-03-28T03:11:57.357Z,50.43
2019-03-28T03:14:02.909Z,46.58
2019-03-28T03:16:08.429Z,52.27
2019-03-28T03:18:14.036Z,50.38
2019-03-28T03:20:19.909Z,50.67
2019-03-28T03:22:25.506Z,49.70
2019-03-28T03:24:31.044Z,48.10
2019-03-28T03:26:36.571Z,43.78
2019-03-28T03:29:01.440Z,52.88
2019-03-28T03:31:06.993Z,49.85
2019-03-28T03:33:12.528Z,47.90
2019-03-28T03:35:18.081Z,49.48
2019-03-28T03:37:23.593Z,49.13
2019-03-28T03:39:29.183Z,45.20
2019-03-28T03:41:34.769Z,44.95
2019-03-28T03:43:40.291Z,42.25
2019-03-28T03:45:46.277Z,47.62
2019-03-28T03:47:51.825Z,48.08
2019-03-28T03:49:57.341Z,45.90
2019-03-28T03:52:02.989Z,43.90
2019-03-28T03:54:08.465Z,45.23
2019-03-28T03:56:13.985Z,43.85
2019-03-28T03:58:19.515Z,43.33
2019-03-28T04:00:32.353Z,48.13
2019-03-28T04:02:38.021Z,46.23
2019-03-28T04:04:43.614Z,47.20
2019-03-28T04:06:49.228Z,53.23
2019-03-28T04:08:54.776Z,46.70
2019-03-28T04:11:00.293Z,48.33
2019-03-28T04:13:05.955Z,43.23
2019-03-28T04:15:11.619Z,41.88
2019-03-28T04:17:17.129Z,53.83
2019-03-28T04:19:22.634Z,43.95
2019-03-28T04:21:28.161Z,45.17
2019-03-28T04:23:33.675Z,37.83
2019-03-28T04:25:39.830Z,52.15
2019-03-28T04:27:47.038Z,60.20
2019-03-28T04:29:52.553Z,48.42
2019-03-28T04:31:58.080Z,55.60
2019-03-28T04:34:07.386Z,77.95
2019-03-28T04:36:10.827Z,72.95
2019-03-28T04:38:16.411Z,80.55
2019-03-28T04:40:21.942Z,70.87
2019-03-28T04:42:27.476Z,70.60
2019-03-28T04:44:33.017Z,69.27
2019-03-28T04:46:39.509Z,71.42
2019-03-28T04:48:45.039Z,67.82
2019-03-28T04:50:50.580Z,66.15
2019-03-28T04:52:56.177Z,74.07
2019-03-28T04:55:01.695Z,74.97
2019-03-28T04:57:07.299Z,59.73
2019-03-28T04:59:12.811Z,69.05
2019-03-28T05:01:18.410Z,51.35
2019-03-28T05:03:23.979Z,50.90
2019-03-28T05:05:29.493Z,50.43
2019-03-28T05:07:35.089Z,56.80
2019-03-28T05:09:40.637Z,56.70
2019-03-28T05:11:46.158Z,54.77
2019-03-28T05:13:51.680Z,50.58
2019-03-28T05:15:57.404Z,55.73
2019-03-28T05:18:04.092Z,55.73
2019-03-28T05:20:13.077Z,51.15
2019-03-28T05:22:17.340Z,50.58
2019-03-28T05:24:25.374Z,48.75
2019-03-28T05:26:30.061Z,49.85
2019-03-28T05:28:36.664Z,57.05
2019-03-28T05:30:42.176Z,58.85
2019-03-28T05:32:47.705Z,52.98
2019-03-28T05:34:53.226Z,62.65
2019-03-28T05:36:58.760Z,55.35
2019-03-28T05:39:05.721Z,56.95
2019-03-28T05:41:11.264Z,52.00
2019-03-28T05:43:16.772Z,52.78
2019-03-28T05:45:22.372Z,46.20
2019-03-28T05:47:29.524Z,55.12
2019-03-28T05:49:35.168Z,52.03
2019-03-28T05:51:40.703Z,53.58
2019-03-28T05:53:46.585Z,52.05
2019-03-28T05:55:52.245Z,55.52
2019-03-28T05:57:57.761Z,51.75
2019-03-28T06:00:03.696Z,63.23
2019-03-28T06:02:09.287Z,77.47
2019-03-28T06:04:14.796Z,58.90
2019-03-28T06:06:20.403Z,52.30
2019-03-28T06:08:25.930Z,46.83
2019-03-28T06:10:31.436Z,45.95
2019-03-28T06:12:37.040Z,51.98
2019-03-28T06:14:42.550Z,52.50
2019-03-28T06:16:48.053Z,47.13
2019-03-28T06:18:53.584Z,52.67
2019-03-28T06:20:59.642Z,52.10
2019-03-28T06:23:05.192Z,53.63
2019-03-28T06:25:10.885Z,71.47
2019-03-28T06:27:16.395Z,73.30
2019-03-28T06:29:24.145Z,75.95
2019-03-28T06:31:29.138Z,61.23
2019-03-28T06:33:34.703Z,59.18
2019-03-28T06:35:40.177Z,59.73
2019-03-28T06:37:45.708Z,58.68
2019-03-28T06:39:51.239Z,62.03
2019-03-28T06:41:56.826Z,66.02
2019-03-28T06:44:02.394Z,69.85
2019-03-28T06:46:07.908Z,65.97
2019-03-28T06:48:13.450Z,69.50
2019-03-28T06:50:19.118Z,63.90
2019-03-28T06:52:24.656Z,67.35
2019-03-28T06:54:30.712Z,70.83
2019-03-28T06:56:36.423Z,68.60
2019-03-28T06:58:41.937Z,68.47
2019-03-28T07:00:47.465Z,61.35
2019-03-28T07:02:52.995Z,67.53
2019-03-28T07:04:58.513Z,56.68
2019-03-28T07:07:04.213Z,61.53
2019-03-28T07:09:09.759Z,60.48
2019-03-28T07:11:15.349Z,53.20
2019-03-28T07:13:20.872Z,53.90
2019-03-28T07:15:26.557Z,52.67
2019-03-28T07:17:32.069Z,55.28
2019-03-28T07:19:37.594Z,56.53
2019-03-28T07:21:43.208Z,59.75
2019-03-28T07:23:48.715Z,63.55
2019-03-28T07:25:54.251Z,55.03
2019-03-28T07:28:06.142Z,58.85
2019-03-28T07:30:12.951Z,57.27
2019-03-28T07:32:18.550Z,60.45
2019-03-28T07:34:25.059Z,57.67
2019-03-28T07:36:30.573Z,55.15
2019-03-28T07:38:36.088Z,52.17
2019-03-28T07:40:41.764Z,54.55
2019-03-28T07:42:47.339Z,48.65
2019-03-28T07:44:52.851Z,51.37
2019-03-28T07:46:58.408Z,58.52
2019-03-28T07:49:04.012Z,71.22
2019-03-28T07:51:09.524Z,54.98
2019-03-28T07:53:15.141Z,67.35
2019-03-28T07:55:20.668Z,62.65
2019-03-28T07:57:26.196Z,62.65
2019-03-28T07:59:31.741Z,64.58
2019-03-28T08:01:37.273Z,75.32
2019-03-28T08:03:42.784Z,76.10
2019-03-28T08:05:48.382Z,69.30
2019-03-28T08:07:53.905Z,73.55
2019-03-28T08:09:59.432Z,66.67
2019-03-28T08:12:05.073Z,72.82
2019-03-28T08:14:11.631Z,70.37
2019-03-28T08:16:17.400Z,65.25
2019-03-28T08:18:23.833Z,63.83
2019-03-28T08:20:29.424Z,65.60
2019-03-28T08:22:35.019Z,67.75
2019-03-28T08:24:40.713Z,74.58
2019-03-28T08:26:46.301Z,66.70
2019-03-28T08:28:52.079Z,63.78
2019-03-28T08:30:57.730Z,67.58
2019-03-28T08:33:04.696Z,83.50
2019-03-28T08:35:10.885Z,70.62
2019-03-28T08:37:16.949Z,74.62
2019-03-28T08:39:23.562Z,64.15
2019-03-28T08:41:29.086Z,60.75
2019-03-28T08:43:35.974Z,49.13
2019-03-28T08:45:41.712Z,41.83
2019-03-28T08:47:47.220Z,37.98
2019-03-28T08:49:52.732Z,41.55
2019-03-28T08:51:58.246Z,40.17
2019-03-28T08:54:04.211Z,38.65
2019-03-28T08:56:09.704Z,36.75
2019-03-28T08:58:15.217Z,39.05
2019-03-28T09:00:32.346Z,39.30
2019-03-28T09:02:28.202Z,41.45
2019-03-28T09:04:33.714Z,41.90
2019-03-28T09:06:39.309Z,41.28
2019-03-28T09:08:44.824Z,39.95
2019-03-28T09:10:50.336Z,36.65
2019-03-28T09:12:55.929Z,39.35
2019-03-28T09:15:01.527Z,39.48
2019-03-28T09:17:07.104Z,38.90
2019-03-28T09:19:12.612Z,36.88
2019-03-28T09:21:18.149Z,32.88
2019-03-28T09:23:24.727Z,34.33
2019-03-28T09:25:30.712Z,33.00
2019-03-28T09:27:36.317Z,32.35
2019-03-28T09:29:41.876Z,36.93
2019-03-28T09:31:47.653Z,33.42
2019-03-28T09:33:53.280Z,40.12
2019-03-28T09:35:59.893Z,39.95
2019-03-28T09:38:05.515Z,38.33
2019-03-28T09:40:11.187Z,32.60
2019-03-28T09:42:16.702Z,32.33
2019-03-28T09:44:22.200Z,39.58
2019-03-28T09:46:27.740Z,42.05
2019-03-28T09:48:33.251Z,46.30
2019-03-28T09:50:38.771Z,48.33
2019-03-28T09:52:44.289Z,47.00
2019-03-28T09:54:49.810Z,47.55
2019-03-28T09:56:55.320Z,48.73
2019-03-28T09:59:00.849Z,43.02
2019-03-28T10:01:07.572Z,47.67
2019-03-28T10:03:13.158Z,42.25
2019-03-28T10:05:18.676Z,39.78
2019-03-28T10:07:24.236Z,37.98
2019-03-28T10:09:29.758Z,38.15
2019-03-28T10:11:35.259Z,31.62
2019-03-28T10:13:40.858Z,27.55
2019-03-28T10:15:46.378Z,28.02
2019-03-28T10:17:51.971Z,24.15
2019-03-28T10:19:57.532Z,23.77
2019-03-28T10:22:03.053Z,20.00
2019-03-28T10:24:08.594Z,20.75
2019-03-28T10:26:14.131Z,18.77
2019-03-28T10:28:19.649Z,23.05
2019-03-28T10:30:39.304Z,25.27
2019-03-28T10:32:44.840Z,101.90
2019-03-28T10:34:50.450Z,43.63
2019-03-28T10:36:55.969Z,77.72
2019-03-28T10:39:01.504Z,23.75
2019-03-28T10:41:08.444Z,73.37
2019-03-28T10:43:13.981Z,41.37
2019-03-28T10:45:19.563Z,16.75
2019-03-28T10:47:25.114Z,21.60
2019-03-28T10:49:30.638Z,19.10
2019-03-28T10:51:36.234Z,18.75
2019-03-28T10:53:41.767Z,17.25
2019-03-28T10:55:47.286Z,18.23
2019-03-28T10:57:52.872Z,18.32
2019-03-28T10:59:58.461Z,20.90
2019-03-28T11:02:04.629Z,21.37
2019-03-28T11:04:10.227Z,19.10
2019-03-28T11:06:15.900Z,14.65
2019-03-28T11:08:21.422Z,15.08
2019-03-28T11:10:30.385Z,16.80
2019-03-28T11:12:34.226Z,34.23
2019-03-28T11:14:39.735Z,40.50
2019-03-28T11:16:48.108Z,25.52
2019-03-28T11:18:52.419Z,20.72
2019-03-28T11:20:57.946Z,29.40
2019-03-28T11:23:03.451Z,31.23
2019-03-28T11:25:09.422Z,29.30
2019-03-28T11:27:14.941Z,27.77
2019-03-28T11:29:20.471Z,33.92
2019-03-28T11:31:26.069Z,21.90
2019-03-28T11:33:31.601Z,20.92
2019-03-28T11:35:37.124Z,28.65
2019-03-28T11:37:42.639Z,21.23
2019-03-28T11:39:48.221Z,21.40
2019-03-28T11:41:53.757Z,22.30
2019-03-28T11:43:59.293Z,27.40
2019-03-28T11:46:04.875Z,27.93
2019-03-28T11:48:10.465Z,26.60
2019-03-28T11:50:17.216Z,26.62
2019-03-28T11:52:23.043Z,30.27
2019-03-28T11:54:28.563Z,29.37
2019-03-28T11:56:34.169Z,28.50
2019-03-28T11:58:39.697Z,26.30
2019-03-28T12:00:45.222Z,24.50
2019-03-28T12:02:50.765Z,27.42
2019-03-28T12:04:56.268Z,21.23
2019-03-28T12:07:01.802Z,17.48
2019-03-28T12:09:07.996Z,22.75
2019-03-28T12:11:13.520Z,16.65
2019-03-28T12:13:20.121Z,15.28
2019-03-28T12:15:25.728Z,15.53
2019-03-28T12:17:31.257Z,15.25
2019-03-28T12:19:36.849Z,28.98
2019-03-28T12:21:44.122Z,34.43
2019-03-28T12:23:50.216Z,29.52
2019-03-28T12:25:55.800Z,20.62
2019-03-28T12:28:01.607Z,24.35
2019-03-28T12:30:10.117Z,21.70
2019-03-28T12:32:15.635Z,16.10
2019-03-28T12:34:21.188Z,17.62
2019-03-28T12:36:26.726Z,27.30
2019-03-28T12:38:32.257Z,21.87
2019-03-28T12:40:37.829Z,23.50
2019-03-28T12:42:43.398Z,25.88
2019-03-28T12:44:56.830Z,19.05
2019-03-28T12:46:56.351Z,19.17
2019-03-28T12:49:01.942Z,23.67
2019-03-28T12:51:07.462Z,36.65
2019-03-28T12:53:13.000Z,35.63
2019-03-28T12:55:18.519Z,26.02
2019-03-28T12:57:24.022Z,28.02
2019-03-28T12:59:29.592Z,25.40
2019-03-28T13:01:35.104Z,19.32
2019-03-28T13:03:45.757Z,18.00
2019-03-28T13:05:47.785Z,17.20
2019-03-28T13:07:53.299Z,15.72
2019-03-28T13:09:58.893Z,17.95
2019-03-28T13:12:04.508Z,22.95
2019-03-28T13:14:10.109Z,16.62
2019-03-28T13:16:15.620Z,18.42
2019-03-28T13:18:21.185Z,16.40
2019-03-28T13:20:32.703Z,17.73
2019-03-28T13:22:38.225Z,17.67
2019-03-28T13:24:43.800Z,18.77
2019-03-28T13:26:49.310Z,19.30
2019-03-28T13:28:54.823Z,18.40
2019-03-28T13:31:01.390Z,17.25
2019-03-28T13:33:06.900Z,17.10
2019-03-28T13:35:12.571Z,16.23
2019-03-28T13:37:18.106Z,38.48
2019-03-28T13:39:23.626Z,21.27
2019-03-28T13:41:29.210Z,22.15
2019-03-28T13:43:34.765Z,24.63
2019-03-28T13:45:40.552Z,20.68
2019-03-28T13:47:46.280Z,29.10
2019-03-28T13:49:51.930Z,31.85
2019-03-28T13:51:57.437Z,25.52
2019-03-28T13:54:02.956Z,18.42
2019-03-28T13:56:08.487Z,24.30
2019-03-28T13:58:14.085Z,28.87
2019-03-28T14:00:22.637Z,45.28
2019-03-28T14:02:40.011Z,22.77
2019-03-28T14:04:39.069Z,28.38
2019-03-28T14:06:45.663Z,29.52
2019-03-28T14:08:51.267Z,30.35
2019-03-28T14:10:56.791Z,38.67
2019-03-28T14:13:02.386Z,48.23
2019-03-28T14:15:08.453Z,44.83
2019-03-28T14:17:13.978Z,26.62
2019-03-28T14:19:19.500Z,33.35
2019-03-28T14:21:25.055Z,36.98
2019-03-28T14:23:30.572Z,36.88
2019-03-28T14:25:36.080Z,35.90
2019-03-28T14:27:41.615Z,37.13
2019-03-28T14:29:47.537Z,37.60
2019-03-28T14:31:53.096Z,36.05
2019-03-28T14:33:58.690Z,36.45
2019-03-28T14:36:04.299Z,34.90
2019-03-28T14:38:09.812Z,35.90
2019-03-28T14:40:15.610Z,37.13
2019-03-28T14:42:22.334Z,38.25
2019-03-28T14:44:27.877Z,45.10
2019-03-28T14:46:33.480Z,35.58
2019-03-28T14:48:39.265Z,41.08
2019-03-28T14:50:45.007Z,38.13
2019-03-28T14:52:50.617Z,34.85
2019-03-28T14:54:56.214Z,33.42
2019-03-28T14:57:02.911Z,36.68
2019-03-28T14:59:09.782Z,36.75
2019-03-28T15:01:15.305Z,30.15
2019-03-28T15:03:26.128Z,28.42
2019-03-28T15:05:28.292Z,35.63
2019-03-28T15:07:33.817Z,36.35
2019-03-28T15:09:39.375Z,49.40
2019-03-28T15:11:45.989Z,56.15
2019-03-28T15:13:51.532Z,71.47
2019-03-28T15:15:57.144Z,63.83
2019-03-28T15:18:03.841Z,76.22
2019-03-28T15:20:09.690Z,55.78
2019-03-28T15:22:15.234Z,45.35
2019-03-28T15:24:21.041Z,29.52
2019-03-28T15:26:29.965Z,43.08
2019-03-28T15:28:34.096Z,44.27
2019-03-28T15:30:39.689Z,45.95
2019-03-28T15:32:45.272Z,45.28
2019-03-28T15:34:50.865Z,48.65
2019-03-28T15:36:56.533Z,62.00
2019-03-28T15:39:02.137Z,62.40
2019-03-28T15:41:08.857Z,48.33
2019-03-28T15:43:14.527Z,43.10
2019-03-28T15:45:21.220Z,45.80
2019-03-28T15:47:27.831Z,43.87
2019-03-28T15:49:33.342Z,44.63
2019-03-28T15:51:38.887Z,46.37
2019-03-28T15:53:46.454Z,41.08
2019-03-28T15:55:51.621Z,38.73
2019-03-28T15:57:57.278Z,38.55
2019-03-28T16:00:02.877Z,38.30
2019-03-28T16:02:08.817Z,39.48
2019-03-28T16:04:14.344Z,41.02
2019-03-28T16:06:22.326Z,42.83
2019-03-28T16:08:27.748Z,47.85
2019-03-28T16:10:33.561Z,49.27
2019-03-28T16:12:39.232Z,51.40
2019-03-28T16:14:44.765Z,55.98
2019-03-28T16:16:50.377Z,55.92
2019-03-28T16:18:55.921Z,57.15
2019-03-28T16:21:01.438Z,49.80
2019-03-28T16:23:06.963Z,61.15
2019-03-28T16:25:13.913Z,52.20
2019-03-28T16:27:19.422Z,46.58
2019-03-28T16:29:25.336Z,71.15
2019-03-28T16:31:30.860Z,79.95
2019-03-28T16:33:36.422Z,77.62
2019-03-28T16:35:42.022Z,92.92
2019-03-28T16:37:50.748Z,97.80
2019-03-28T16:39:54.799Z,98.52
2019-03-28T16:42:00.416Z,63.50
2019-03-28T16:44:06.193Z,51.55
2019-03-28T16:46:11.788Z,55.40
2019-03-28T16:48:17.499Z,52.13
2019-03-28T16:50:23.123Z,52.15
2019-03-28T16:52:28.734Z,70.32
2019-03-28T16:54:34.272Z,75.45
2019-03-28T16:56:39.821Z,85.07
2019-03-28T16:58:45.886Z,110.22
2019-03-28T17:00:51.625Z,67.85
2019-03-28T17:02:57.182Z,105.87
2019-03-28T17:05:02.800Z,128.18
2019-03-28T17:07:10.022Z,119.70
2019-03-28T17:09:15.740Z,100.55
2019-03-28T17:11:24.341Z,85.20
2019-03-28T17:13:30.033Z,82.30
2019-03-28T17:15:35.600Z,74.60
2019-03-28T17:17:41.141Z,260.70
2019-03-28T17:19:46.716Z,105.40
2019-03-28T17:21:52.287Z,203.15
2019-03-28T17:23:57.842Z,192.18
2019-03-28T17:26:04.093Z,152.40
2019-03-28T17:28:09.776Z,132.57
2019-03-28T17:30:15.658Z,127.35
2019-03-28T17:32:21.274Z,126.18
2019-03-28T17:34:34.668Z,112.88
2019-03-28T17:36:34.077Z,115.90
2019-03-28T17:38:39.746Z,123.50
2019-03-28T17:40:48.003Z,117.40
2019-03-28T17:42:53.617Z,110.55
2019-03-28T17:44:59.670Z,107.80
2019-03-28T17:47:05.574Z,100.35
2019-03-28T17:49:11.179Z,102.95
2019-03-28T17:51:16.842Z,106.47
2019-03-28T17:53:24.059Z,95.72
2019-03-28T17:55:30.040Z,96.97
2019-03-28T17:57:35.599Z,99.52
2019-03-28T17:59:41.212Z,115.45
2019-03-28T18:01:47.030Z,123.28
2019-03-28T18:03:52.569Z,119.30
2019-03-28T18:05:58.786Z,126.53
2019-03-28T18:08:04.561Z,123.97
2019-03-28T18:10:10.427Z,131.95
2019-03-28T18:12:16.006Z,133.05
2019-03-28T18:14:21.542Z,152.32
2019-03-28T18:16:27.065Z,175.03
2019-03-28T18:18:32.701Z,200.60
2019-03-28T18:20:38.365Z,198.47
2019-03-28T18:22:44.000Z,200.38
2019-03-28T18:24:49.605Z,219.22
2019-03-28T18:26:55.254Z,226.55
2019-03-28T18:29:01.652Z,247.70
2019-03-28T18:31:07.448Z,244.93
2019-03-28T18:33:13.337Z,258.95
2019-03-28T18:35:18.886Z,264.72
2019-03-28T18:37:24.491Z,288.37
2019-03-28T18:39:30.037Z,295.33
2019-03-28T18:41:35.570Z,422.82
2019-03-28T18:43:41.127Z,375.32
2019-03-28T18:45:46.731Z,479.95
2019-03-28T18:47:52.268Z,487.50
2019-03-28T18:49:57.884Z,497.15
2019-03-28T18:52:03.423Z,496.57
2019-03-28T18:54:10.036Z,473.47
2019-03-28T18:56:15.654Z,462.23
2019-03-28T18:58:21.198Z,516.80
2019-03-28T19:00:33.520Z,492.70
2019-03-28T19:02:39.149Z,440.65
2019-03-28T19:04:44.850Z,400.87
2019-03-28T19:06:50.409Z,388.35
2019-03-28T19:08:55.960Z,371.65
2019-03-28T19:11:17.950Z,366.50
2019-03-28T19:13:23.497Z,364.55
2019-03-28T19:15:29.069Z,352.20
2019-03-28T19:17:37.580Z,351.58
2019-03-28T19:19:43.796Z,349.40
2019-03-28T19:21:49.604Z,344.65
2019-03-28T19:23:55.240Z,337.20
2019-03-28T19:26:01.031Z,327.60
2019-03-28T19:28:07.951Z,327.13
2019-03-28T19:30:14.181Z,323.13
2019-03-28T19:32:19.733Z,329.23
2019-03-28T19:34:25.344Z,335.95
2019-03-28T19:36:31.441Z,330.32
2019-03-28T19:38:37.086Z,317.70
2019-03-28T19:40:42.618Z,326.70
2019-03-28T19:42:48.218Z,320.27
2019-03-28T19:44:53.850Z,326.65
2019-03-28T19:46:59.678Z,326.42
2019-03-28T19:49:06.261Z,335.85
2019-03-28T19:51:11.905Z,344.77
2019-03-28T19:53:17.979Z,351.92
2019-03-28T19:55:24.498Z,351.73
2019-03-28T19:57:31.106Z,354.43
2019-03-28T19:59:36.665Z,382.83
2019-03-28T20:01:42.296Z,377.98
2019-03-28T20:03:47.833Z,370.42
2019-03-28T20:05:53.503Z,370.77
2019-03-28T20:07:59.093Z,390.40
2019-03-28T20:10:16.370Z,392.05
2019-03-28T20:12:13.650Z,396.80
2019-03-28T20:14:19.226Z,442.30
2019-03-28T20:16:25.885Z,435.50
2019-03-28T20:18:31.636Z,435.25
2019-03-28T20:20:37.361Z,438.87
2019-03-28T20:22:44.982Z,460.23
2019-03-28T20:24:50.112Z,462.48
2019-03-28T20:26:56.243Z,470.80
2019-03-28T20:29:01.815Z,487.62
2019-03-28T20:31:07.349Z,515.88
2019-03-28T20:33:13.005Z,530.92
2019-03-28T20:35:18.710Z,576.75
2019-03-28T20:37:24.213Z,528.95
2019-03-28T20:39:29.799Z,506.78
2019-03-28T20:41:37.313Z,476.02
2019-03-28T20:43:42.651Z,490.20
2019-03-28T20:45:48.361Z,484.25
2019-03-28T20:47:53.979Z,503.45
2019-03-28T20:50:00.306Z,506.50
2019-03-28T20:52:09.272Z,487.77
2019-03-28T20:54:13.855Z,493.65
2019-03-28T20:56:19.485Z,494.60
2019-03-28T20:58:25.117Z,496.63
2019-03-28T21:00:37.064Z,489.52
2019-03-28T21:02:42.784Z,483.23
2019-03-28T21:04:48.357Z,473.73
2019-03-28T21:06:54.225Z,473.32
2019-03-28T21:08:59.843Z,471.40
2019-03-28T21:11:05.401Z,464.65
2019-03-28T21:13:11.145Z,482.20
2019-03-28T21:15:16.685Z,493.87
2019-03-28T21:17:22.229Z,484.85
2019-03-28T21:19:27.763Z,473.28
2019-03-28T21:21:33.309Z,477.93
2019-03-28T21:23:39.062Z,476.80
2019-03-28T21:25:44.563Z,456.60
2019-03-28T21:27:50.092Z,449.27
2019-03-28T21:29:56.793Z,426.63
2019-03-28T21:32:02.329Z,432.02
2019-03-28T21:34:07.896Z,429.70
2019-03-28T21:36:13.506Z,401.75
2019-03-28T21:38:19.018Z,395.55
2019-03-28T21:40:24.560Z,410.07
2019-03-28T21:42:30.081Z,415.17
2019-03-28T21:44:35.608Z,430.00
2019-03-28T21:46:41.169Z,428.00
2019-03-28T21:48:46.694Z,437.60
2019-03-28T21:50:52.249Z,451.45
2019-03-28T21:52:57.777Z,455.00
2019-03-28T21:55:03.865Z,455.30
2019-03-28T21:57:09.389Z,465.43
2019-03-28T21:59:15.024Z,464.45
2019-03-28T22:01:20.559Z,460.70
2019-03-28T22:03:26.151Z,457.45
2019-03-28T22:05:31.652Z,468.95
2019-03-28T22:07:37.176Z,463.55
2019-03-28T22:09:42.714Z,469.25
2019-03-28T22:11:48.299Z,475.90
2019-03-28T22:13:57.024Z,468.75
2019-03-28T22:16:02.565Z,460.43
2019-03-28T22:18:08.115Z,478.18
2019-03-28T22:20:13.687Z,478.08
2019-03-28T22:22:19.234Z,508.92
2019-03-28T22:24:24.833Z,521.83
2019-03-28T22:26:30.366Z,505.60
2019-03-28T22:28:37.975Z,475.57
2019-03-28T22:30:46.785Z,501.35
2019-03-28T22:32:52.325Z,522.15
2019-03-28T22:34:57.860Z,514.40
2019-03-28T22:37:03.673Z,493.05
2019-03-28T22:39:09.424Z,511.30
2019-03-28T22:41:14.996Z,491.98
2019-03-28T22:43:20.533Z,500.75
2019-03-28T22:45:26.065Z,490.30
2019-03-28T22:47:34.919Z,486.62
2019-03-28T22:49:38.747Z,489.30
2019-03-28T22:51:44.268Z,476.27
2019-03-28T22:53:49.807Z,483.42
2019-03-28T22:55:55.338Z,509.13
2019-03-28T22:58:01.829Z,512.40
2019-03-28T23:00:10.508Z,524.77
2019-03-28T23:02:17.638Z,515.25
2019-03-28T23:04:23.230Z,533.40
2019-03-28T23:06:28.845Z,512.80
2019-03-28T23:08:34.380Z,519.20
2019-03-28T23:10:40.976Z,523.45
2019-03-28T23:12:46.512Z,515.70
2019-03-28T23:14:52.028Z,512.67
2019-03-28T23:16:57.634Z,538.77
2019-03-28T23:19:03.239Z,522.17
2019-03-28T23:21:08.765Z,538.15
2019-03-28T23:23:14.389Z,556.25
2019-03-28T23:25:19.839Z,548.23
2019-03-28T23:27:25.443Z,558.67
2019-03-28T23:29:31.036Z,493.67
2019-03-28T23:31:36.664Z,530.73
2019-03-28T23:33:42.188Z,513.50
2019-03-28T23:35:47.795Z,506.67
2019-03-28T23:37:53.835Z,510.78
2019-03-28T23:40:01.027Z,500.22
2019-03-28T23:42:06.688Z,506.35
2019-03-28T23:44:12.240Z,534.98
2019-03-28T23:46:17.781Z,546.90
2019-03-28T23:48:23.308Z,563.72
2019-03-28T23:50:28.849Z,528.70
2019-03-28T23:52:34.372Z,549.88
2019-03-28T23:54:39.906Z,567.55
2019-03-28T23:56:45.448Z,568.02
2019-03-28T23:58:50.997Z,590.28
